createdAt,value
2019-02-23T00:01:16.073Z,37.58
2019-02-23T00:03:44.320Z,27.13
2019-02-23T00:06:12.470Z,30.80
2019-02-23T00:08:40.764Z,29.45
2019-02-23T00:11:09.071Z,35.13
2019-02-23T00:13:37.475Z,35.88
2019-02-23T00:16:05.797Z,29.23
2019-02-23T00:18:34.016Z,30.00
2019-02-23T00:21:02.187Z,24.70
2019-02-23T00:23:30.781Z,31.55
2019-02-23T00:25:58.931Z,29.32
2019-02-23T00:28:27.160Z,25.12
2019-02-23T00:30:55.351Z,27.37
2019-02-23T00:33:24.101Z,26.65
2019-02-23T00:35:52.304Z,30.65
2019-02-23T00:38:20.535Z,30.75
2019-02-23T00:40:48.713Z,24.32
2019-02-23T00:43:16.973Z,30.50
2019-02-23T00:45:45.154Z,33.02
2019-02-23T00:48:13.367Z,31.35
2019-02-23T00:50:41.892Z,22.73
2019-02-23T00:53:10.289Z,29.35
2019-02-23T00:55:38.506Z,30.37
2019-02-23T00:58:06.741Z,26.55
2019-02-23T01:00:34.961Z,29.55
2019-02-23T01:03:03.198Z,27.32
2019-02-23T01:05:31.542Z,28.07
2019-02-23T01:07:59.992Z,30.30
2019-02-23T01:10:28.638Z,28.27
2019-02-23T01:12:56.860Z,26.33
2019-02-23T01:15:25.516Z,25.85
2019-02-23T01:17:53.771Z,36.10
2019-02-23T01:20:22.181Z,28.80
2019-02-23T01:22:50.445Z,31.37
2019-02-23T01:25:18.827Z,30.25
2019-02-23T01:27:47.312Z,40.80
2019-02-23T01:30:15.574Z,40.88
2019-02-23T01:32:44.360Z,34.70
2019-02-23T01:35:12.541Z,32.60
2019-02-23T01:37:40.886Z,33.73
2019-02-23T01:40:10.011Z,33.18
2019-02-23T01:42:38.187Z,31.70
2019-02-23T01:45:08.354Z,33.75
2019-02-23T01:47:36.889Z,26.75
2019-02-23T01:50:06.826Z,33.53
2019-02-23T01:52:35.007Z,23.32
2019-02-23T01:55:03.330Z,38.23
2019-02-23T01:57:31.510Z,27.75
2019-02-23T01:59:59.673Z,31.75
2019-02-23T02:02:28.078Z,29.02
2019-02-23T02:04:56.295Z,26.05
2019-02-23T02:07:24.497Z,27.98
2019-02-23T02:09:52.704Z,29.12
2019-02-23T02:12:22.220Z,30.27
2019-02-23T02:14:50.840Z,27.25
2019-02-23T02:17:19.602Z,23.67
2019-02-23T02:19:47.748Z,34.45
2019-02-23T02:22:15.975Z,32.50
2019-02-23T02:24:44.300Z,29.90
2019-02-23T02:27:12.589Z,30.17
2019-02-23T02:29:41.346Z,34.43
2019-02-23T02:32:09.860Z,33.75
2019-02-23T02:34:38.278Z,30.27
2019-02-23T02:37:06.505Z,30.80
2019-02-23T02:39:35.227Z,34.33
2019-02-23T02:42:03.919Z,22.65
2019-02-23T02:44:32.304Z,22.85
2019-02-23T02:47:00.647Z,25.43
2019-02-23T02:49:29.149Z,24.75
2019-02-23T02:51:57.951Z,40.58
2019-02-23T02:54:26.376Z,28.20
2019-02-23T02:56:54.565Z,30.08
2019-02-23T02:59:23.185Z,29.05
2019-02-23T03:01:51.355Z,32.90
2019-02-23T03:04:19.863Z,24.72
2019-02-23T03:06:48.285Z,26.82
2019-02-23T03:09:16.541Z,30.50
2019-02-23T03:11:45.077Z,26.37
2019-02-23T03:14:13.388Z,27.95
2019-02-23T03:16:41.840Z,26.62
2019-02-23T03:19:10.165Z,26.90
2019-02-23T03:21:38.392Z,28.98
2019-02-23T03:24:06.662Z,21.90
2019-02-23T03:26:34.983Z,23.20
2019-02-23T03:29:03.447Z,23.92
2019-02-23T03:31:31.714Z,21.77
2019-02-23T03:33:59.890Z,25.37
2019-02-23T03:36:28.611Z,19.32
2019-02-23T03:38:56.877Z,20.65
2019-02-23T03:41:25.367Z,18.95
2019-02-23T03:43:53.701Z,16.48
2019-02-23T03:46:22.082Z,24.75
2019-02-23T03:48:50.494Z,25.25
2019-02-23T03:51:18.856Z,21.25
2019-02-23T03:53:47.113Z,20.52
2019-02-23T03:56:15.565Z,18.37
2019-02-23T03:58:44.009Z,20.20
2019-02-23T04:01:12.335Z,23.40
2019-02-23T04:03:40.729Z,19.45
2019-02-23T04:06:09.048Z,21.82
2019-02-23T04:08:37.269Z,19.73
2019-02-23T04:11:05.740Z,20.45
2019-02-23T04:13:33.940Z,16.27
2019-02-23T04:16:02.314Z,22.15
2019-02-23T04:18:30.710Z,19.02
2019-02-23T04:21:02.015Z,14.73
2019-02-23T04:23:29.010Z,16.23
2019-02-23T04:25:57.344Z,19.70
2019-02-23T04:28:25.533Z,17.73
2019-02-23T04:30:53.742Z,24.65
2019-02-23T04:33:21.933Z,14.25
2019-02-23T04:35:50.392Z,13.72
2019-02-23T04:38:18.519Z,21.70
2019-02-23T04:40:46.756Z,15.90
2019-02-23T04:43:15.142Z,21.57
2019-02-23T04:45:43.334Z,19.17
2019-02-23T04:48:11.531Z,28.25
2019-02-23T04:50:39.796Z,25.77
2019-02-23T04:53:08.339Z,22.85
2019-02-23T04:55:36.666Z,26.82
2019-02-23T04:58:04.835Z,21.52
2019-02-23T05:00:33.122Z,25.60
2019-02-23T05:03:01.290Z,32.50
2019-02-23T05:05:29.522Z,27.98
2019-02-23T05:07:58.085Z,28.85
2019-02-23T05:10:26.308Z,28.65
2019-02-23T05:12:54.669Z,26.25
2019-02-23T05:15:22.859Z,27.90
2019-02-23T05:17:51.143Z,18.42
2019-02-23T05:20:19.374Z,22.13
2019-02-23T05:22:47.654Z,21.87
2019-02-23T05:25:15.927Z,32.03
2019-02-23T05:27:44.415Z,22.22
2019-02-23T05:30:12.644Z,21.87
2019-02-23T05:32:40.912Z,18.10
2019-02-23T05:35:10.426Z,19.67
2019-02-23T05:37:38.674Z,17.12
2019-02-23T05:40:08.510Z,17.45
2019-02-23T05:42:36.834Z,13.60
2019-02-23T05:45:05.584Z,21.07
2019-02-23T05:47:33.807Z,23.05
2019-02-23T05:50:01.927Z,17.57
2019-02-23T05:52:30.312Z,19.00
2019-02-23T05:54:58.667Z,17.75
2019-02-23T05:57:26.860Z,21.95
2019-02-23T05:59:55.122Z,23.85
2019-02-23T06:02:23.412Z,22.98
2019-02-23T06:04:51.738Z,30.10
2019-02-23T06:07:20.373Z,27.87
2019-02-23T06:09:48.726Z,45.78
2019-02-23T06:12:17.464Z,37.50
2019-02-23T06:14:46.106Z,43.02
2019-02-23T06:17:14.561Z,31.68
2019-02-23T06:19:42.753Z,30.05
2019-02-23T06:22:11.299Z,32.95
2019-02-23T06:24:39.520Z,22.82
2019-02-23T06:27:08.156Z,26.33
2019-02-23T06:29:36.330Z,25.57
2019-02-23T06:32:04.587Z,32.38
2019-02-23T06:34:32.807Z,17.75
2019-02-23T06:37:01.348Z,16.60
2019-02-23T06:39:29.592Z,26.25
2019-02-23T06:41:58.018Z,19.82
2019-02-23T06:44:26.143Z,26.07
2019-02-23T06:46:54.329Z,23.40
2019-02-23T06:49:22.491Z,23.05
2019-02-23T06:51:50.731Z,17.45
2019-02-23T06:54:18.884Z,18.73
2019-02-23T06:56:47.098Z,16.93
2019-02-23T06:59:15.302Z,19.37
2019-02-23T07:01:43.549Z,24.27
2019-02-23T07:04:11.775Z,22.95
2019-02-23T07:06:40.189Z,16.12
2019-02-23T07:09:08.516Z,21.00
2019-02-23T07:11:36.696Z,21.10
2019-02-23T07:14:04.880Z,14.85
2019-02-23T07:16:33.098Z,23.73
2019-02-23T07:19:01.351Z,19.67
2019-02-23T07:21:29.499Z,19.92
2019-02-23T07:23:57.780Z,18.80
2019-02-23T07:26:25.989Z,18.12
2019-02-23T07:28:54.811Z,14.35
2019-02-23T07:31:22.966Z,20.92
2019-02-23T07:33:51.250Z,19.73
2019-02-23T07:36:19.564Z,20.68
2019-02-23T07:38:47.799Z,18.15
2019-02-23T07:41:15.971Z,18.75
2019-02-23T07:43:44.226Z,19.05
2019-02-23T07:46:12.450Z,27.05
2019-02-23T07:48:40.644Z,22.45
2019-02-23T07:51:09.068Z,26.57
2019-02-23T07:53:37.369Z,24.77
2019-02-23T07:56:05.602Z,22.70
2019-02-23T07:58:33.973Z,22.50
2019-02-23T08:01:02.189Z,25.08
2019-02-23T08:03:30.497Z,28.27
2019-02-23T08:05:58.773Z,25.72
2019-02-23T08:08:27.012Z,35.73
2019-02-23T08:10:55.317Z,20.97
2019-02-23T08:13:23.841Z,21.20
2019-02-23T08:15:52.004Z,22.27
2019-02-23T08:18:20.279Z,18.95
2019-02-23T08:20:48.602Z,18.20
2019-02-23T08:23:16.733Z,25.77
2019-02-23T08:25:44.902Z,19.62
2019-02-23T08:28:13.088Z,15.95
2019-02-23T08:30:41.247Z,16.50
2019-02-23T08:33:09.511Z,17.37
2019-02-23T08:35:37.682Z,23.45
2019-02-23T08:38:06.173Z,13.60
2019-02-23T08:40:34.422Z,31.85
2019-02-23T08:43:02.628Z,11.73
2019-02-23T08:45:30.799Z,9.55
2019-02-23T08:47:59.066Z,12.55
2019-02-23T08:50:27.615Z,17.73
2019-02-23T08:52:55.822Z,14.98
2019-02-23T08:55:23.997Z,22.15
2019-02-23T08:57:52.330Z,19.73
2019-02-23T09:00:20.881Z,22.95
2019-02-23T09:02:49.093Z,21.33
2019-02-23T09:05:17.419Z,13.10
2019-02-23T09:07:45.642Z,16.32
2019-02-23T09:10:15.263Z,14.78
2019-02-23T09:12:43.470Z,19.77
2019-02-23T09:15:11.687Z,14.45
2019-02-23T09:17:39.877Z,19.73
2019-02-23T09:20:08.322Z,13.30
2019-02-23T09:22:36.462Z,20.65
2019-02-23T09:25:05.006Z,10.50
2019-02-23T09:27:33.227Z,15.23
2019-02-23T09:30:01.449Z,15.93
2019-02-23T09:32:29.591Z,17.10
2019-02-23T09:34:58.456Z,11.75
2019-02-23T09:37:26.706Z,13.25
2019-02-23T09:39:55.262Z,16.77
2019-02-23T09:42:23.733Z,14.87
2019-02-23T09:44:52.591Z,18.15
2019-02-23T09:47:21.027Z,11.65
2019-02-23T09:49:49.288Z,10.82
2019-02-23T09:52:17.585Z,22.02
2019-02-23T09:54:45.814Z,20.55
2019-02-23T09:57:14.016Z,16.40
2019-02-23T09:59:42.265Z,11.65
2019-02-23T10:02:10.453Z,21.20
2019-02-23T10:04:38.711Z,14.35
2019-02-23T10:07:06.893Z,19.35
2019-02-23T10:09:35.138Z,14.00
2019-02-23T10:12:03.298Z,17.60
2019-02-23T10:14:31.546Z,24.27
2019-02-23T10:16:59.757Z,15.65
2019-02-23T10:19:27.986Z,14.73
2019-02-23T10:21:56.585Z,10.75
2019-02-23T10:24:25.244Z,15.68
2019-02-23T10:26:53.487Z,14.15
2019-02-23T10:29:21.662Z,22.02
2019-02-23T10:31:49.972Z,20.10
2019-02-23T10:34:18.320Z,17.07
2019-02-23T10:36:46.667Z,15.85
2019-02-23T10:39:14.843Z,15.00
2019-02-23T10:41:43.135Z,19.65
2019-02-23T10:44:11.361Z,16.70
2019-02-23T10:46:39.540Z,15.93
2019-02-23T10:49:08.131Z,19.25
2019-02-23T10:51:36.416Z,16.77
2019-02-23T10:54:04.625Z,23.00
2019-02-23T10:56:32.845Z,23.32
2019-02-23T10:59:01.761Z,22.65
2019-02-23T11:01:30.095Z,27.00
2019-02-23T11:03:58.363Z,31.15
2019-02-23T11:06:26.509Z,24.98
2019-02-23T11:08:54.758Z,23.95
2019-02-23T11:11:22.984Z,27.77
2019-02-23T11:13:51.253Z,25.32
2019-02-23T11:16:19.533Z,27.45
2019-02-23T11:18:47.709Z,26.68
2019-02-23T11:21:15.883Z,24.72
2019-02-23T11:23:44.651Z,23.70
2019-02-23T11:26:14.070Z,22.37
2019-02-23T11:28:42.210Z,24.82
2019-02-23T11:31:10.477Z,35.58
2019-02-23T11:33:38.637Z,25.25
2019-02-23T11:36:06.819Z,25.05
2019-02-23T11:38:35.084Z,20.15
2019-02-23T11:41:03.248Z,24.57
2019-02-23T11:43:31.499Z,16.75
2019-02-23T11:45:59.714Z,18.02
2019-02-23T11:48:29.888Z,19.65
2019-02-23T11:50:58.136Z,16.10
2019-02-23T11:53:26.432Z,27.93
2019-02-23T11:55:54.700Z,20.52
2019-02-23T11:58:22.917Z,17.05
2019-02-23T12:00:51.221Z,19.48
2019-02-23T12:03:19.478Z,18.23
2019-02-23T12:05:47.734Z,17.65
2019-02-23T12:08:16.011Z,20.65
2019-02-23T12:10:44.270Z,22.87
2019-02-23T12:13:12.529Z,17.35
2019-02-23T12:15:40.757Z,18.73
2019-02-23T12:18:08.970Z,18.30
2019-02-23T12:20:37.291Z,21.33
2019-02-23T12:23:05.586Z,16.42
2019-02-23T12:25:33.880Z,16.52
2019-02-23T12:28:02.065Z,18.10
2019-02-23T12:30:32.670Z,24.32
2019-02-23T12:33:00.415Z,21.77
2019-02-23T12:35:28.675Z,20.95
2019-02-23T12:37:57.021Z,21.73
2019-02-23T12:40:25.329Z,17.15
2019-02-23T12:42:53.535Z,17.67
2019-02-23T12:45:21.771Z,15.53
2019-02-23T12:47:51.277Z,16.25
2019-02-23T12:50:19.585Z,26.60
2019-02-23T12:52:47.921Z,21.42
2019-02-23T12:55:16.142Z,19.05
2019-02-23T12:57:44.366Z,19.87
2019-02-23T13:00:12.610Z,24.07
2019-02-23T13:02:40.795Z,24.43
2019-02-23T13:05:09.088Z,20.77
2019-02-23T13:07:37.333Z,19.87
2019-02-23T13:10:06.988Z,17.67
2019-02-23T13:13:09.236Z,17.02
2019-02-23T13:16:20.218Z,18.37
2019-02-23T13:19:45.506Z,22.25
2019-02-23T13:23:34.580Z,19.65
2019-02-23T13:26:45.655Z,18.82
2019-02-23T13:33:10.299Z,19.42
2019-02-23T13:36:50.888Z,13.22
2019-02-23T13:39:52.986Z,23.77
2019-02-23T13:42:57.454Z,17.55
2019-02-23T13:46:28.228Z,18.67
2019-02-23T13:50:02.081Z,19.87
2019-02-23T13:53:23.474Z,24.57
2019-02-23T13:56:24.536Z,15.93
2019-02-23T14:03:04.294Z,15.30
2019-02-23T14:06:25.226Z,16.60
2019-02-23T14:09:56.959Z,16.23
2019-02-23T14:13:17.626Z,17.20
2019-02-23T14:16:41.530Z,24.98
2019-02-23T14:20:11.001Z,21.95
2019-02-23T14:23:32.272Z,22.02
2019-02-23T14:26:56.326Z,19.00
2019-02-23T14:30:31.156Z,19.70
2019-02-23T14:34:09.458Z,19.45
2019-02-23T14:37:04.516Z,26.95
2019-02-23T14:40:27.137Z,21.20
2019-02-23T14:43:40.460Z,17.57
2019-02-23T14:47:10.611Z,18.75
2019-02-23T14:50:36.622Z,25.60
2019-02-23T14:53:44.483Z,24.75
2019-02-23T14:56:34.757Z,18.23
2019-02-23T15:00:14.717Z,19.67
2019-02-23T15:03:43.221Z,28.27
2019-02-23T15:06:45.790Z,23.60
2019-02-23T15:10:01.291Z,26.50
2019-02-23T15:13:15.823Z,27.75
2019-02-23T15:16:47.100Z,24.50
2019-02-23T15:20:40.681Z,22.70
2019-02-23T15:23:44.072Z,22.37
2019-02-23T15:27:08.753Z,20.85
2019-02-23T15:30:15.057Z,22.65
2019-02-23T15:33:40.553Z,23.00
2019-02-23T15:37:00.668Z,32.95
2019-02-23T15:40:33.571Z,31.60
2019-02-23T15:43:55.585Z,29.95
2019-02-23T15:47:18.968Z,37.33
2019-02-23T15:49:47.425Z,29.80
2019-02-23T15:52:15.887Z,38.55
2019-02-23T15:54:44.174Z,37.42
2019-02-23T15:57:12.364Z,32.25
2019-02-23T15:59:40.650Z,35.88
2019-02-23T16:02:08.863Z,31.60
2019-02-23T16:04:37.032Z,41.37
2019-02-23T16:07:05.228Z,32.88
2019-02-23T16:09:33.512Z,34.25
2019-02-23T16:12:02.064Z,30.00
2019-02-23T16:14:30.424Z,22.30
2019-02-23T16:16:58.638Z,25.23
2019-02-23T16:19:26.847Z,28.55
2019-02-23T16:21:55.070Z,30.10
2019-02-23T16:24:23.292Z,29.30
2019-02-23T16:26:51.549Z,26.93
2019-02-23T16:29:19.800Z,31.12
2019-02-23T16:31:48.026Z,23.10
2019-02-23T16:34:16.302Z,28.27
2019-02-23T16:36:44.492Z,27.93
2019-02-23T16:39:12.695Z,32.15
2019-02-23T16:41:41.010Z,31.30
2019-02-23T16:44:09.336Z,28.40
2019-02-23T16:46:37.584Z,35.30
2019-02-23T16:49:05.808Z,30.25
2019-02-23T16:51:34.024Z,33.40
2019-02-23T16:54:02.259Z,37.75
2019-02-23T16:56:30.585Z,40.33
2019-02-23T16:59:01.574Z,40.43
2019-02-23T17:01:29.766Z,39.58
2019-02-23T17:03:57.949Z,40.20
2019-02-23T17:06:26.189Z,43.30
2019-02-23T17:08:54.461Z,39.98
2019-02-23T17:11:22.637Z,44.75
2019-02-23T17:13:50.900Z,42.13
2019-02-23T17:16:19.655Z,48.65
2019-02-23T17:18:47.862Z,44.55
2019-02-23T17:21:16.042Z,47.17
2019-02-23T17:23:44.523Z,42.90
2019-02-23T17:26:12.799Z,42.35
2019-02-23T17:28:40.999Z,44.85
2019-02-23T17:31:10.123Z,33.90
2019-02-23T17:33:38.320Z,32.58
2019-02-23T17:36:06.549Z,37.50
2019-02-23T17:38:34.891Z,31.52
2019-02-23T17:41:03.134Z,42.53
2019-02-23T17:43:31.338Z,31.60
2019-02-23T17:45:59.579Z,40.15
2019-02-23T17:48:27.771Z,31.52
2019-02-23T17:50:56.173Z,30.82
2019-02-23T17:53:24.465Z,42.55
2019-02-23T17:55:56.249Z,28.40
2019-02-23T17:58:24.488Z,25.02
2019-02-23T18:00:52.795Z,35.95
2019-02-23T18:03:21.086Z,32.93
2019-02-23T18:05:49.292Z,38.65
2019-02-23T18:08:17.551Z,35.17
2019-02-23T18:10:45.758Z,46.02
2019-02-23T18:13:14.039Z,37.95
2019-02-23T18:15:42.327Z,46.40
2019-02-23T18:18:10.544Z,41.63
2019-02-23T18:20:38.777Z,54.70
2019-02-23T18:23:07.016Z,51.05
2019-02-23T18:25:35.262Z,48.48
2019-02-23T18:28:03.520Z,39.10
2019-02-23T18:30:31.688Z,49.45
2019-02-23T18:32:59.903Z,52.45
2019-02-23T18:35:28.140Z,47.15
2019-02-23T18:37:56.426Z,57.10
2019-02-23T18:40:24.594Z,53.23
2019-02-23T18:42:53.218Z,56.55
2019-02-23T18:45:21.451Z,49.70
2019-02-23T18:47:49.763Z,54.58
2019-02-23T18:50:18.110Z,49.90
2019-02-23T18:52:46.566Z,53.02
2019-02-23T18:55:14.771Z,49.13
2019-02-23T18:57:43.001Z,47.08
2019-02-23T19:00:11.640Z,39.98
2019-02-23T19:02:39.825Z,51.25
2019-02-23T19:05:10.273Z,46.28
2019-02-23T19:07:38.493Z,46.13
2019-02-23T19:10:09.150Z,38.40
2019-02-23T19:12:37.422Z,41.98
2019-02-23T19:15:07.264Z,44.05
2019-02-23T19:17:35.659Z,41.40
2019-02-23T19:20:05.074Z,46.20
2019-02-23T19:22:33.354Z,41.35
2019-02-23T19:25:01.567Z,44.18
2019-02-23T19:27:29.738Z,41.37
2019-02-23T19:29:57.940Z,44.05
2019-02-23T19:32:26.179Z,49.95
2019-02-23T19:34:54.638Z,52.00
2019-02-23T19:37:22.871Z,45.92
2019-02-23T19:39:51.073Z,51.13
2019-02-23T19:42:19.290Z,48.30
2019-02-23T19:44:47.495Z,53.60
2019-02-23T19:47:20.726Z,51.33
2019-02-23T19:49:52.307Z,53.05
2019-02-23T19:52:20.547Z,56.48
2019-02-23T19:54:48.697Z,53.13
2019-02-23T19:57:17.047Z,58.02
2019-02-23T19:59:45.289Z,62.75
2019-02-23T20:02:13.501Z,70.47
2019-02-23T20:04:41.767Z,64.95
2019-02-23T20:07:09.960Z,57.33
2019-02-23T20:09:38.222Z,64.05
2019-02-23T20:12:06.556Z,57.10
2019-02-23T20:14:34.794Z,61.15
2019-02-23T20:17:02.953Z,62.85
2019-02-23T20:19:31.151Z,65.80
2019-02-23T20:21:59.336Z,61.28
2019-02-23T20:24:27.572Z,63.83
2019-02-23T20:26:55.973Z,56.35
2019-02-23T20:29:24.532Z,58.95
2019-02-23T20:31:52.722Z,56.75
2019-02-23T20:34:20.954Z,54.50
2019-02-23T20:36:49.279Z,52.98
2019-02-23T20:39:17.630Z,48.17
2019-02-23T20:41:45.830Z,56.25
2019-02-23T20:44:14.046Z,54.60
2019-02-23T20:46:42.238Z,60.85
2019-02-23T20:49:10.567Z,55.00
2019-02-23T20:51:38.823Z,43.73
2019-02-23T20:54:07.090Z,48.20
2019-02-23T20:56:35.421Z,50.40
2019-02-23T20:59:03.618Z,50.05
2019-02-23T21:01:31.864Z,54.77
2019-02-23T21:04:00.107Z,55.20
2019-02-23T21:06:28.366Z,49.30
2019-02-23T21:08:56.625Z,55.70
2019-02-23T21:11:24.795Z,48.98
2019-02-23T21:13:53.072Z,50.38
2019-02-23T21:16:21.358Z,51.13
2019-02-23T21:18:49.532Z,55.40
2019-02-23T21:21:17.676Z,52.38
2019-02-23T21:23:45.923Z,51.33
2019-02-23T21:26:14.244Z,49.35
2019-02-23T21:28:42.492Z,48.95
2019-02-23T21:31:10.605Z,46.60
2019-02-23T21:33:38.983Z,47.45
2019-02-23T21:36:07.212Z,51.02
2019-02-23T21:38:35.516Z,41.85
2019-02-23T21:41:03.708Z,47.33
2019-02-23T21:43:31.880Z,47.00
2019-02-23T21:46:00.054Z,42.15
2019-02-23T21:48:28.238Z,41.18
2019-02-23T21:50:56.450Z,41.70
2019-02-23T21:53:24.648Z,40.17
2019-02-23T21:55:52.907Z,48.80
2019-02-23T21:58:21.124Z,47.88
2019-02-23T22:00:49.410Z,44.93
2019-02-23T22:03:17.642Z,46.23
2019-02-23T22:05:45.858Z,45.05
2019-02-23T22:08:13.997Z,40.35
2019-02-23T22:10:42.220Z,51.28
2019-02-23T22:13:10.382Z,44.05
2019-02-23T22:15:38.573Z,45.65
2019-02-23T22:18:06.800Z,46.00
2019-02-23T22:20:35.045Z,46.53
2019-02-23T22:23:03.422Z,43.02
2019-02-23T22:25:31.665Z,38.55
2019-02-23T22:27:59.880Z,40.80
2019-02-23T22:30:28.053Z,41.18
2019-02-23T22:32:56.253Z,38.95
2019-02-23T22:35:24.494Z,36.40
2019-02-23T22:37:52.645Z,38.28
2019-02-23T22:40:20.871Z,38.35
2019-02-23T22:42:49.088Z,46.85
2019-02-23T22:45:17.318Z,37.67
2019-02-23T22:47:45.483Z,38.17
2019-02-23T22:50:13.743Z,37.67
2019-02-23T22:52:41.966Z,39.95
2019-02-23T22:55:10.245Z,43.48
2019-02-23T22:57:40.852Z,39.83
2019-02-23T23:00:10.661Z,41.33
2019-02-23T23:02:38.806Z,43.48
2019-02-23T23:05:07.153Z,39.83
2019-02-23T23:07:35.292Z,37.70
2019-02-23T23:10:03.979Z,38.55
2019-02-23T23:12:32.148Z,43.48
2019-02-23T23:15:01.533Z,38.02
2019-02-23T23:17:29.741Z,39.65
2019-02-23T23:19:57.943Z,35.40
2019-02-23T23:22:26.220Z,44.03
2019-02-23T23:24:54.428Z,39.78
2019-02-23T23:27:22.634Z,41.00
2019-02-23T23:29:50.972Z,40.48
2019-02-23T23:32:19.200Z,42.48
2019-02-23T23:34:47.438Z,46.53
2019-02-23T23:37:15.629Z,43.38
2019-02-23T23:39:43.838Z,44.18
2019-02-23T23:42:11.996Z,48.28
2019-02-23T23:44:40.151Z,44.63
2019-02-23T23:47:08.569Z,46.80
2019-02-23T23:49:36.771Z,49.05
2019-02-23T23:52:04.998Z,49.18
2019-02-23T23:54:33.138Z,42.65
2019-02-23T23:57:01.791Z,53.10
2019-02-23T23:59:30.000Z,57.85
